createdAt,value
2022-11-03T00:01:05.482Z,8.68
2022-11-03T00:04:12.052Z,8.62
2022-11-03T00:07:20.579Z,8.52
2022-11-03T00:10:23.432Z,8.56
2022-11-03T00:13:25.990Z,8.86
2022-11-03T00:16:29.222Z,8.83
2022-11-03T00:19:32.881Z,8.77
2022-11-03T00:22:37.030Z,8.68
2022-11-03T00:25:39.598Z,8.29
2022-11-03T00:28:44.900Z,8.13
2022-11-03T00:31:47.460Z,8.30
2022-11-03T00:34:50.609Z,8.20
2022-11-03T00:37:53.217Z,8.06
2022-11-03T00:41:01.364Z,8.08
2022-11-03T00:44:04.656Z,8.05
2022-11-03T00:47:07.632Z,7.90
2022-11-03T00:50:10.160Z,7.85
2022-11-03T00:53:13.014Z,7.72
2022-11-03T00:56:18.119Z,7.73
2022-11-03T00:59:21.920Z,7.74
2022-11-03T01:02:24.558Z,7.83
2022-11-03T01:05:45.984Z,7.75
2022-11-03T01:08:48.559Z,7.76
2022-11-03T01:12:13.090Z,7.70
2022-11-03T01:15:15.879Z,7.75
2022-11-03T01:18:18.791Z,7.76
2022-11-03T01:21:21.437Z,7.59
2022-11-03T01:24:24.442Z,7.56
2022-11-03T01:27:26.920Z,7.47
2022-11-03T01:30:30.051Z,7.30
2022-11-03T01:33:33.370Z,7.17
2022-11-03T01:36:36.299Z,7.24
2022-11-03T01:39:38.812Z,7.28
2022-11-03T01:42:41.743Z,7.29
2022-11-03T01:45:45.471Z,7.42
2022-11-03T01:49:11.649Z,7.20
2022-11-03T01:52:20.289Z,7.19
2022-11-03T01:55:28.746Z,7.17
2022-11-03T01:58:36.493Z,7.02
2022-11-03T02:01:39.823Z,7.07
2022-11-03T02:04:43.840Z,7.03
2022-11-03T02:11:35.281Z,6.65
2022-11-03T02:14:49.871Z,6.50
2022-11-03T02:17:55.722Z,6.47
2022-11-03T02:21:12.176Z,6.56
2022-11-03T02:24:43.307Z,6.57
2022-11-03T02:27:46.350Z,6.50
2022-11-03T02:31:24.429Z,6.59
2022-11-03T02:34:34.606Z,6.57
2022-11-03T02:37:42.533Z,6.73
2022-11-03T02:40:52.054Z,6.85
2022-11-03T02:43:57.243Z,6.95
2022-11-03T02:47:03.999Z,6.89
2022-11-03T02:50:10.719Z,6.77
2022-11-03T02:53:14.592Z,6.82
2022-11-03T02:56:24.960Z,6.71
2022-11-03T02:59:32.199Z,6.34
2022-11-03T03:03:08.176Z,6.16
2022-11-03T03:06:19.447Z,6.35
2022-11-03T03:09:29.537Z,6.43
2022-11-03T03:12:35.660Z,6.37
2022-11-03T03:15:46.562Z,6.23
2022-11-03T03:19:04.690Z,6.36
2022-11-03T03:22:35.144Z,6.16
2022-11-03T03:25:40.986Z,6.06
2022-11-03T03:28:52.594Z,6.18
2022-11-03T03:31:59.064Z,6.22
2022-11-03T03:35:03.616Z,6.19
2022-11-03T03:38:11.172Z,6.28
2022-11-03T03:41:22.274Z,6.29
2022-11-03T03:44:26.185Z,6.25
2022-11-03T03:47:31.262Z,6.33
2022-11-03T03:50:38.783Z,6.26
2022-11-03T03:53:42.537Z,6.47
2022-11-03T03:56:54.545Z,6.31
2022-11-03T03:59:57.446Z,6.32
2022-11-03T04:03:00.365Z,6.11
2022-11-03T04:06:03.889Z,6.18
2022-11-03T04:09:07.425Z,6.40
2022-11-03T04:12:29.121Z,6.33
2022-11-03T04:15:51.112Z,6.29
2022-11-03T04:19:12.747Z,6.31
2022-11-03T04:22:18.240Z,5.99
2022-11-03T04:25:21.181Z,6.10
2022-11-03T04:28:25.928Z,5.94
2022-11-03T04:31:31.952Z,5.90
2022-11-03T04:34:34.588Z,6.03
2022-11-03T04:37:38.256Z,6.00
2022-11-03T04:40:44.602Z,6.07
2022-11-03T04:43:47.808Z,5.95
2022-11-03T04:46:50.432Z,5.61
2022-11-03T04:49:53.356Z,5.75
2022-11-03T04:52:59.425Z,5.84
2022-11-03T04:56:07.222Z,5.58
2022-11-03T04:59:14.512Z,5.35
2022-11-03T05:02:20.401Z,5.52
2022-11-03T05:05:26.294Z,5.61
2022-11-03T05:08:29.716Z,5.65
2022-11-03T05:11:39.308Z,5.78
2022-11-03T05:14:42.300Z,5.90
2022-11-03T05:17:44.860Z,5.76
2022-11-03T05:20:56.835Z,5.88
2022-11-03T05:24:03.658Z,5.93
2022-11-03T05:27:16.785Z,6.09
2022-11-03T05:30:19.406Z,6.14
2022-11-03T05:33:28.628Z,6.23
2022-11-03T05:36:33.883Z,6.19
2022-11-03T05:39:40.742Z,6.24
2022-11-03T05:42:46.881Z,6.40
2022-11-03T05:45:58.146Z,6.45
2022-11-03T05:49:07.691Z,6.39
2022-11-03T05:52:23.271Z,6.35
2022-11-03T05:55:35.017Z,6.36
2022-11-03T05:58:39.763Z,6.36
2022-11-03T06:01:42.518Z,6.39
2022-11-03T06:04:45.447Z,6.45
2022-11-03T06:07:50.122Z,6.55
2022-11-03T06:10:55.725Z,6.61
2022-11-03T06:13:59.626Z,6.66
2022-11-03T06:17:08.593Z,6.80
2022-11-03T06:20:19.152Z,6.83
2022-11-03T06:23:23.120Z,6.85
2022-11-03T06:26:28.843Z,6.99
2022-11-03T06:29:33.658Z,6.95
2022-11-03T06:32:36.684Z,7.04
2022-11-03T06:35:39.945Z,7.08
2022-11-03T06:38:43.447Z,7.04
2022-11-03T06:41:47.439Z,7.10
2022-11-03T06:44:51.764Z,7.17
2022-11-03T06:47:55.373Z,7.24
2022-11-03T06:51:00.094Z,7.37
2022-11-03T06:54:09.809Z,7.40
2022-11-03T06:57:14.874Z,7.50
2022-11-03T07:00:37.022Z,7.60
2022-11-03T07:03:42.590Z,7.65
2022-11-03T07:06:52.807Z,7.75
2022-11-03T07:09:56.025Z,7.89
2022-11-03T07:13:12.306Z,8.02
2022-11-03T07:16:43.031Z,8.12
2022-11-03T07:19:46.216Z,8.30
2022-11-03T07:22:50.160Z,8.47
2022-11-03T07:26:02.906Z,8.51
2022-11-03T07:29:23.174Z,8.56
2022-11-03T07:32:33.505Z,8.65
2022-11-03T07:39:21.526Z,8.99
2022-11-03T07:42:26.413Z,9.17
2022-11-03T07:45:45.358Z,9.29
2022-11-03T07:48:50.360Z,9.34
2022-11-03T07:51:54.698Z,9.51
2022-11-03T07:54:57.422Z,9.63
2022-11-03T07:58:00.351Z,9.76
2022-11-03T08:01:16.702Z,9.82
2022-11-03T08:04:26.074Z,9.95
2022-11-03T08:07:29.087Z,10.12
2022-11-03T08:10:32.705Z,10.48
2022-11-03T08:13:35.760Z,10.62
2022-11-03T08:16:38.946Z,10.70
2022-11-03T08:19:42.115Z,10.92
2022-11-03T08:22:59.088Z,11.08
2022-11-03T08:26:07.712Z,11.36
2022-11-03T08:29:10.726Z,11.85
2022-11-03T08:32:14.246Z,12.47
2022-11-03T08:35:17.326Z,13.54
2022-11-03T08:38:19.882Z,15.07
2022-11-03T08:41:22.833Z,16.48
2022-11-03T08:44:25.456Z,17.46
2022-11-03T08:47:28.275Z,18.28
2022-11-03T08:50:30.896Z,18.47
2022-11-03T08:53:34.714Z,19.02
2022-11-03T08:56:37.241Z,18.76
2022-11-03T08:59:40.170Z,20.03
2022-11-03T09:02:43.877Z,20.32
2022-11-03T09:05:47.133Z,20.86
2022-11-03T09:12:12.709Z,22.02
2022-11-03T09:15:15.507Z,22.21
2022-11-03T09:18:18.377Z,22.22
2022-11-03T09:21:20.971Z,21.35
2022-11-03T09:24:23.776Z,21.49
2022-11-03T09:27:26.419Z,21.72
2022-11-03T09:30:29.502Z,20.97
2022-11-03T09:33:32.062Z,20.51
2022-11-03T09:36:35.116Z,20.83
2022-11-03T09:39:37.817Z,20.78
2022-11-03T09:42:41.502Z,21.26
2022-11-03T09:45:44.772Z,20.22
2022-11-03T09:48:47.930Z,20.95
2022-11-03T09:51:50.558Z,21.40
2022-11-03T09:54:58.078Z,21.94
2022-11-03T09:58:09.584Z,21.36
2022-11-03T10:01:13.545Z,21.35
2022-11-03T10:04:21.530Z,21.47
2022-11-03T10:07:27.323Z,21.64
2022-11-03T10:10:31.067Z,21.35
2022-11-03T10:13:39.144Z,21.40
2022-11-03T10:16:43.123Z,22.33
2022-11-03T10:19:49.601Z,23.47
2022-11-03T10:22:54.659Z,22.62
2022-11-03T10:26:10.210Z,21.51
2022-11-03T10:32:30.954Z,21.85
2022-11-03T10:35:36.966Z,21.88
2022-11-03T10:38:39.570Z,21.65
2022-11-03T10:41:57.587Z,21.21
2022-11-03T10:45:20.160Z,20.62
2022-11-03T10:48:25.178Z,20.41
2022-11-03T10:51:29.229Z,20.33
2022-11-03T10:54:35.702Z,20.79
2022-11-03T10:57:38.593Z,20.73
2022-11-03T11:00:42.948Z,19.98
2022-11-03T11:03:45.950Z,20.96
2022-11-03T11:06:49.620Z,21.13
2022-11-03T11:09:54.475Z,20.62
2022-11-03T11:13:15.755Z,21.10
2022-11-03T11:16:54.370Z,21.45
2022-11-03T11:20:31.031Z,21.96
2022-11-03T11:23:33.615Z,21.13
2022-11-03T11:26:37.939Z,21.58
2022-11-03T11:29:40.509Z,20.44
2022-11-03T11:32:46.163Z,20.48
2022-11-03T11:35:48.675Z,20.99
2022-11-03T11:38:55.851Z,21.12
2022-11-03T11:42:14.770Z,20.96
2022-11-03T11:45:56.260Z,21.07
2022-11-03T11:49:04.548Z,20.02
2022-11-03T11:52:15.217Z,20.18
2022-11-03T11:55:42.594Z,20.03
2022-11-03T11:58:53.033Z,20.22
2022-11-03T12:01:57.268Z,19.78
2022-11-03T12:05:04.905Z,18.91
2022-11-03T12:08:21.422Z,18.10
2022-11-03T12:11:55.344Z,17.98
2022-11-03T12:14:58.811Z,18.42
2022-11-03T12:18:40.659Z,19.22
2022-11-03T12:21:46.722Z,18.41
2022-11-03T12:24:55.785Z,18.64
2022-11-03T12:27:58.456Z,18.86
2022-11-03T12:31:02.110Z,19.18
2022-11-03T12:34:04.984Z,19.25
2022-11-03T12:37:08.572Z,18.44
2022-11-03T12:40:13.973Z,18.13
2022-11-03T12:43:17.137Z,18.21
2022-11-03T12:46:21.491Z,19.07
2022-11-03T12:49:24.546Z,19.71
2022-11-03T12:52:27.122Z,19.88
2022-11-03T12:55:30.373Z,19.72
2022-11-03T12:58:33.219Z,19.73
2022-11-03T13:01:36.307Z,19.73
2022-11-03T13:04:39.241Z,19.34
2022-11-03T13:07:43.370Z,18.82
2022-11-03T13:10:46.022Z,18.48
2022-11-03T13:13:48.991Z,18.32
2022-11-03T13:16:51.781Z,18.05
2022-11-03T13:19:54.929Z,17.63
2022-11-03T13:22:57.497Z,17.32
2022-11-03T13:26:00.591Z,16.66
2022-11-03T13:29:03.864Z,15.97
2022-11-03T13:32:08.491Z,15.30
2022-11-03T13:35:13.933Z,14.74
2022-11-03T13:38:18.538Z,14.56
2022-11-03T13:41:21.093Z,14.23
2022-11-03T13:44:26.612Z,14.02
2022-11-03T13:47:41.939Z,13.84
2022-11-03T13:50:53.323Z,13.64
2022-11-03T14:00:43.292Z,13.28
2022-11-03T14:07:08.918Z,13.06
2022-11-03T14:10:11.852Z,12.93
2022-11-03T14:13:14.372Z,12.66
2022-11-03T14:16:17.453Z,12.49
2022-11-03T14:19:20.259Z,12.34
2022-11-03T14:22:24.142Z,12.21
2022-11-03T14:25:27.116Z,12.15
2022-11-03T14:28:30.067Z,12.13
2022-11-03T14:31:33.913Z,12.06
2022-11-03T14:34:38.005Z,12.07
2022-11-03T14:37:40.791Z,12.07
2022-11-03T14:41:02.821Z,12.10
2022-11-03T14:44:07.247Z,12.20
2022-11-03T14:47:15.798Z,12.25
2022-11-03T14:50:18.294Z,12.19
2022-11-03T14:53:21.459Z,12.19
2022-11-03T14:56:24.728Z,12.15
2022-11-03T14:59:28.236Z,12.14
2022-11-03T15:02:30.795Z,12.14
2022-11-03T15:05:46.074Z,12.11
2022-11-03T15:08:53.448Z,12.11
2022-11-03T15:11:59.007Z,12.01
2022-11-03T15:15:01.610Z,12.01
2022-11-03T15:18:04.740Z,11.97
2022-11-03T15:21:07.463Z,11.89
2022-11-03T15:27:32.932Z,11.69
2022-11-03T15:30:35.842Z,11.57
2022-11-03T15:33:38.447Z,11.50
2022-11-03T15:36:41.337Z,11.45
2022-11-03T15:39:43.925Z,11.40
2022-11-03T15:42:46.874Z,11.34
2022-11-03T15:45:49.395Z,11.30
2022-11-03T15:48:54.813Z,11.29
2022-11-03T15:51:57.520Z,11.26
2022-11-03T15:55:00.430Z,11.22
2022-11-03T15:58:04.576Z,11.21
2022-11-03T16:01:07.975Z,11.23
2022-11-03T16:04:13.436Z,11.22
2022-11-03T16:07:16.018Z,11.24
2022-11-03T16:10:18.832Z,11.19
2022-11-03T16:13:21.566Z,11.20
2022-11-03T16:16:24.469Z,11.15
2022-11-03T16:19:27.094Z,11.06
2022-11-03T16:22:30.999Z,11.03
2022-11-03T16:25:34.707Z,10.95
2022-11-03T16:28:37.855Z,10.93
2022-11-03T16:31:40.685Z,10.91
2022-11-03T16:34:44.953Z,10.93
2022-11-03T16:37:49.533Z,10.91
2022-11-03T16:40:53.223Z,10.87
2022-11-03T16:43:56.205Z,10.87
2022-11-03T16:46:59.148Z,10.93
2022-11-03T16:50:01.739Z,10.96
2022-11-03T16:53:06.034Z,11.06
2022-11-03T16:56:10.251Z,11.01
2022-11-03T16:59:13.299Z,11.07
2022-11-03T17:02:18.473Z,11.11
2022-11-03T17:05:22.086Z,11.13
2022-11-03T17:08:51.294Z,11.15
2022-11-03T17:11:48.899Z,11.08
2022-11-03T17:14:55.630Z,11.09
2022-11-03T17:18:00.408Z,11.15
2022-11-03T17:21:03.054Z,11.12
2022-11-03T17:24:06.912Z,11.17
2022-11-03T17:27:15.743Z,11.03
2022-11-03T17:30:31.514Z,11.02
2022-11-03T17:33:35.315Z,10.98
2022-11-03T17:36:38.379Z,10.89
2022-11-03T17:39:41.647Z,10.86
2022-11-03T17:42:45.049Z,10.70
2022-11-03T17:45:47.709Z,10.79
2022-11-03T17:48:50.599Z,10.68
2022-11-03T17:51:55.157Z,10.57
2022-11-03T17:55:01.263Z,10.45
2022-11-03T17:58:06.433Z,10.52
2022-11-03T18:01:11.088Z,10.60
2022-11-03T18:04:18.150Z,10.42
2022-11-03T18:07:24.840Z,10.34
2022-11-03T18:10:33.605Z,10.33
2022-11-03T18:13:37.501Z,10.18
2022-11-03T18:16:41.476Z,10.10
2022-11-03T18:19:45.564Z,10.17
2022-11-03T18:22:49.379Z,10.17
2022-11-03T18:25:54.773Z,10.21
2022-11-03T18:28:58.268Z,10.18
2022-11-03T18:32:03.945Z,10.21
2022-11-03T18:35:11.625Z,10.23
2022-11-03T18:38:15.881Z,10.29
2022-11-03T18:41:38.648Z,10.35
2022-11-03T18:44:46.907Z,10.40
2022-11-03T18:47:49.931Z,10.43
2022-11-03T18:50:56.854Z,10.57
2022-11-03T18:54:00.412Z,10.60
2022-11-03T18:57:04.029Z,10.67
2022-11-03T19:00:19.521Z,10.63
2022-11-03T19:03:23.845Z,10.71
2022-11-03T19:06:27.224Z,10.72
2022-11-03T19:09:30.814Z,10.80
2022-11-03T19:12:38.796Z,10.84
2022-11-03T19:15:43.286Z,10.90
2022-11-03T19:18:47.077Z,10.93
2022-11-03T19:21:53.756Z,11.01
2022-11-03T19:24:57.182Z,11.08
2022-11-03T19:28:00.979Z,11.18
2022-11-03T19:31:04.545Z,11.26
2022-11-03T19:34:13.631Z,11.39
2022-11-03T19:37:18.146Z,11.45
2022-11-03T19:40:21.305Z,11.51
2022-11-03T19:43:24.630Z,11.55
2022-11-03T19:46:28.315Z,11.68
2022-11-03T19:49:31.636Z,11.72
2022-11-03T19:52:35.880Z,11.71
2022-11-03T19:55:42.672Z,11.65
2022-11-03T19:58:46.733Z,11.62
2022-11-03T20:01:50.730Z,11.57
2022-11-03T20:04:55.323Z,11.53
2022-11-03T20:08:04.596Z,11.57
2022-11-03T20:11:08.822Z,11.60
2022-11-03T20:14:18.397Z,11.56
2022-11-03T20:17:23.374Z,11.60
2022-11-03T20:20:31.067Z,11.58
2022-11-03T20:23:35.976Z,11.58
2022-11-03T20:26:39.135Z,11.64
2022-11-03T20:29:42.984Z,11.64
2022-11-03T20:32:48.558Z,11.63
2022-11-03T20:35:53.973Z,11.62
2022-11-03T20:38:59.805Z,11.62
2022-11-03T20:42:04.453Z,11.64
2022-11-03T20:45:16.591Z,11.62
2022-11-03T20:48:19.859Z,11.65
2022-11-03T20:51:26.459Z,11.65
2022-11-03T20:54:30.663Z,11.64
2022-11-03T20:57:33.285Z,11.67
2022-11-03T21:00:36.645Z,11.68
2022-11-03T21:07:04.302Z,11.63
2022-11-03T21:10:07.475Z,11.59
2022-11-03T21:13:17.925Z,11.60
2022-11-03T21:16:41.106Z,11.58
2022-11-03T21:19:59.433Z,11.56
2022-11-03T21:23:06.527Z,11.58
2022-11-03T21:26:12.705Z,11.58
2022-11-03T21:29:27.495Z,11.58
2022-11-03T21:32:38.229Z,11.56
2022-11-03T21:35:42.674Z,11.52
2022-11-03T21:38:45.794Z,11.47
2022-11-03T21:42:07.351Z,11.47
2022-11-03T21:45:10.808Z,11.44
2022-11-03T21:48:32.461Z,11.42
2022-11-03T21:51:35.391Z,11.38
2022-11-03T21:54:39.418Z,11.40
2022-11-03T21:57:42.248Z,11.39
2022-11-03T22:00:47.361Z,11.35
2022-11-03T22:03:51.390Z,11.31
2022-11-03T22:06:56.215Z,11.33
2022-11-03T22:09:59.126Z,11.33
2022-11-03T22:13:01.650Z,11.28
2022-11-03T22:16:23.636Z,11.32
2022-11-03T22:19:45.041Z,11.39
2022-11-03T22:23:06.765Z,11.34
2022-11-03T22:26:31.601Z,11.32
2022-11-03T22:29:53.299Z,11.26
2022-11-03T22:32:58.077Z,11.27
2022-11-03T22:36:21.900Z,11.25
2022-11-03T22:39:44.842Z,11.19
2022-11-03T22:43:06.641Z,11.12
2022-11-03T22:46:11.255Z,11.12
2022-11-03T22:49:14.180Z,11.10
2022-11-03T22:52:16.790Z,11.06
2022-11-03T22:55:19.775Z,11.02
2022-11-03T22:58:25.318Z,10.96
2022-11-03T23:01:32.167Z,10.98
2022-11-03T23:04:37.372Z,10.94
2022-11-03T23:07:41.770Z,11.01
2022-11-03T23:10:44.534Z,10.97
2022-11-03T23:13:53.313Z,10.99
2022-11-03T23:16:55.895Z,10.94
2022-11-03T23:20:17.166Z,10.96
2022-11-03T23:23:39.417Z,10.92
2022-11-03T23:26:43.036Z,10.86
2022-11-03T23:29:45.603Z,10.82
2022-11-03T23:32:48.771Z,10.79
2022-11-03T23:35:51.453Z,10.85
2022-11-03T23:38:58.515Z,10.82
2022-11-03T23:42:01.207Z,10.81
2022-11-03T23:45:22.960Z,10.82
2022-11-03T23:48:44.229Z,10.87
2022-11-03T23:51:47.166Z,10.87
2022-11-03T23:54:49.792Z,10.86
2022-11-03T23:58:11.219Z,10.88
